sensor_id;sensor_type;location;lat;lon;timestamp;P1;durP1;ratioP1;P2;durP2;ratioP2
8486;SDS011;4280;50.534;8.708;2024-01-30T00:02:16;44.73;;;23.70;;
8486;SDS011;4280;50.534;8.708;2024-01-30T00:04:42;45.97;;;22.00;;
8486;SDS011;4280;50.534;8.708;2024-01-30T00:07:08;42.70;;;22.63;;
8486;SDS011;4280;50.534;8.708;2024-01-30T00:09:33;43.33;;;23.03;;
8486;SDS011;4280;50.534;8.708;2024-01-30T00:11:59;48.80;;;22.47;;
8486;SDS011;4280;50.534;8.708;2024-01-30T00:14:25;40.77;;;21.93;;
8486;SDS011;4280;50.534;8.708;2024-01-30T00:16:51;51.43;;;24.20;;
8486;SDS011;4280;50.534;8.708;2024-01-30T00:19:17;54.20;;;25.17;;
8486;SDS011;4280;50.534;8.708;2024-01-30T00:21:43;46.23;;;24.40;;
8486;SDS011;4280;50.534;8.708;2024-01-30T00:24:08;47.03;;;23.47;;
8486;SDS011;4280;50.534;8.708;2024-01-30T00:26:34;46.93;;;21.40;;
8486;SDS011;4280;50.534;8.708;2024-01-30T00:29:00;42.10;;;22.20;;
8486;SDS011;4280;50.534;8.708;2024-01-30T00:31:26;38.60;;;20.40;;
8486;SDS011;4280;50.534;8.708;2024-01-30T00:33:51;42.03;;;20.97;;
8486;SDS011;4280;50.534;8.708;2024-01-30T00:36:17;47.67;;;22.97;;
8486;SDS011;4280;50.534;8.708;2024-01-30T00:38:43;41.50;;;21.77;;
8486;SDS011;4280;50.534;8.708;2024-01-30T00:41:09;56.20;;;24.30;;
8486;SDS011;4280;50.534;8.708;2024-01-30T00:43:35;55.90;;;26.53;;
8486;SDS011;4280;50.534;8.708;2024-01-30T00:46:01;48.23;;;22.10;;
8486;SDS011;4280;50.534;8.708;2024-01-30T00:48:27;47.93;;;25.00;;
8486;SDS011;4280;50.534;8.708;2024-01-30T00:50:52;49.63;;;23.07;;
8486;SDS011;4280;50.534;8.708;2024-01-30T00:53:18;56.73;;;28.17;;
8486;SDS011;4280;50.534;8.708;2024-01-30T00:55:44;59.33;;;31.40;;
8486;SDS011;4280;50.534;8.708;2024-01-30T00:58:10;67.43;;;30.90;;
8486;SDS011;4280;50.534;8.708;2024-01-30T01:00:35;64.60;;;32.03;;
8486;SDS011;4280;50.534;8.708;2024-01-30T01:03:02;47.47;;;24.73;;
8486;SDS011;4280;50.534;8.708;2024-01-30T01:05:28;68.37;;;29.80;;
8486;SDS011;4280;50.534;8.708;2024-01-30T01:07:54;56.40;;;29.97;;
8486;SDS011;4280;50.534;8.708;2024-01-30T01:10:20;61.43;;;31.20;;
8486;SDS011;4280;50.534;8.708;2024-01-30T01:12:45;57.97;;;28.70;;
8486;SDS011;4280;50.534;8.708;2024-01-30T01:15:11;71.50;;;31.80;;
8486;SDS011;4280;50.534;8.708;2024-01-30T01:17:37;66.90;;;31.47;;
8486;SDS011;4280;50.534;8.708;2024-01-30T01:20:04;59.00;;;31.17;;
8486;SDS011;4280;50.534;8.708;2024-01-30T01:22:31;85.00;;;33.23;;
8486;SDS011;4280;50.534;8.708;2024-01-30T01:24:57;73.53;;;35.50;;
8486;SDS011;4280;50.534;8.708;2024-01-30T01:27:24;73.67;;;35.40;;
8486;SDS011;4280;50.534;8.708;2024-01-30T01:29:50;86.33;;;38.40;;
8486;SDS011;4280;50.534;8.708;2024-01-30T01:32:16;92.70;;;39.27;;
8486;SDS011;4280;50.534;8.708;2024-01-30T01:34:42;87.23;;;33.57;;
8486;SDS011;4280;50.534;8.708;2024-01-30T01:37:07;70.53;;;31.87;;
8486;SDS011;4280;50.534;8.708;2024-01-30T01:39:33;66.97;;;34.03;;
8486;SDS011;4280;50.534;8.708;2024-01-30T01:41:59;89.50;;;38.07;;
8486;SDS011;4280;50.534;8.708;2024-01-30T01:44:25;89.30;;;36.33;;
8486;SDS011;4280;50.534;8.708;2024-01-30T01:46:51;102.50;;;40.87;;
8486;SDS011;4280;50.534;8.708;2024-01-30T01:49:17;88.63;;;40.80;;
8486;SDS011;4280;50.534;8.708;2024-01-30T01:51:44;81.50;;;37.43;;
8486;SDS011;4280;50.534;8.708;2024-01-30T01:54:10;83.07;;;39.17;;
8486;SDS011;4280;50.534;8.708;2024-01-30T01:56:37;94.87;;;39.93;;
8486;SDS011;4280;50.534;8.708;2024-01-30T01:59:07;86.47;;;39.70;;
8486;SDS011;4280;50.534;8.708;2024-01-30T02:01:34;80.23;;;39.80;;
8486;SDS011;4280;50.534;8.708;2024-01-30T02:04:04;91.73;;;37.90;;
8486;SDS011;4280;50.534;8.708;2024-01-30T02:06:30;81.50;;;36.47;;
8486;SDS011;4280;50.534;8.708;2024-01-30T02:08:57;83.03;;;36.27;;
8486;SDS011;4280;50.534;8.708;2024-01-30T02:11:23;91.17;;;34.47;;
8486;SDS011;4280;50.534;8.708;2024-01-30T02:13:49;77.73;;;35.23;;
8486;SDS011;4280;50.534;8.708;2024-01-30T02:16:15;79.70;;;36.37;;
8486;SDS011;4280;50.534;8.708;2024-01-30T02:18:42;86.70;;;36.70;;
8486;SDS011;4280;50.534;8.708;2024-01-30T02:21:10;66.23;;;33.37;;
8486;SDS011;4280;50.534;8.708;2024-01-30T02:23:36;91.70;;;40.10;;
8486;SDS011;4280;50.534;8.708;2024-01-30T02:26:03;75.30;;;34.27;;
8486;SDS011;4280;50.534;8.708;2024-01-30T02:28:28;77.73;;;35.93;;
8486;SDS011;4280;50.534;8.708;2024-01-30T02:30:54;118.00;;;41.50;;
8486;SDS011;4280;50.534;8.708;2024-01-30T02:33:20;94.20;;;38.40;;
8486;SDS011;4280;50.534;8.708;2024-01-30T02:35:47;98.03;;;39.73;;
8486;SDS011;4280;50.534;8.708;2024-01-30T02:38:19;63.13;;;30.83;;
8486;SDS011;4280;50.534;8.708;2024-01-30T02:40:49;71.50;;;33.17;;
8486;SDS011;4280;50.534;8.708;2024-01-30T02:43:15;72.37;;;34.17;;
8486;SDS011;4280;50.534;8.708;2024-01-30T02:45:42;75.00;;;37.43;;
8486;SDS011;4280;50.534;8.708;2024-01-30T02:48:08;87.20;;;37.17;;
8486;SDS011;4280;50.534;8.708;2024-01-30T02:50:33;90.90;;;38.00;;
8486;SDS011;4280;50.534;8.708;2024-01-30T02:52:59;66.03;;;33.73;;
8486;SDS011;4280;50.534;8.708;2024-01-30T02:55:25;75.77;;;34.57;;
8486;SDS011;4280;50.534;8.708;2024-01-30T02:57:50;90.37;;;35.33;;
8486;SDS011;4280;50.534;8.708;2024-01-30T03:00:16;79.57;;;37.17;;
8486;SDS011;4280;50.534;8.708;2024-01-30T03:02:42;82.83;;;34.10;;
8486;SDS011;4280;50.534;8.708;2024-01-30T03:05:08;87.37;;;34.93;;
8486;SDS011;4280;50.534;8.708;2024-01-30T03:07:34;70.43;;;31.47;;
8486;SDS011;4280;50.534;8.708;2024-01-30T03:10:00;76.03;;;36.37;;
8486;SDS011;4280;50.534;8.708;2024-01-30T03:12:25;66.47;;;30.70;;
8486;SDS011;4280;50.534;8.708;2024-01-30T03:14:51;58.40;;;28.50;;
8486;SDS011;4280;50.534;8.708;2024-01-30T03:17:17;72.37;;;30.77;;
8486;SDS011;4280;50.534;8.708;2024-01-30T03:19:43;67.50;;;32.43;;
8486;SDS011;4280;50.534;8.708;2024-01-30T03:22:09;76.17;;;32.27;;
8486;SDS011;4280;50.534;8.708;2024-01-30T03:24:34;79.23;;;36.37;;
8486;SDS011;4280;50.534;8.708;2024-01-30T03:27:00;69.93;;;35.10;;
8486;SDS011;4280;50.534;8.708;2024-01-30T03:29:26;78.07;;;35.00;;
8486;SDS011;4280;50.534;8.708;2024-01-30T03:31:52;91.10;;;38.97;;
8486;SDS011;4280;50.534;8.708;2024-01-30T03:34:17;87.77;;;36.70;;
8486;SDS011;4280;50.534;8.708;2024-01-30T03:36:43;89.10;;;41.77;;
8486;SDS011;4280;50.534;8.708;2024-01-30T03:39:09;106.60;;;43.90;;
8486;SDS011;4280;50.534;8.708;2024-01-30T03:41:34;79.97;;;39.00;;
8486;SDS011;4280;50.534;8.708;2024-01-30T03:44:01;77.67;;;34.10;;
8486;SDS011;4280;50.534;8.708;2024-01-30T03:46:27;79.33;;;34.37;;
8486;SDS011;4280;50.534;8.708;2024-01-30T03:48:52;81.43;;;32.27;;
8486;SDS011;4280;50.534;8.708;2024-01-30T03:51:18;72.37;;;33.97;;
8486;SDS011;4280;50.534;8.708;2024-01-30T03:53:44;72.83;;;33.90;;
8486;SDS011;4280;50.534;8.708;2024-01-30T03:56:13;76.83;;;35.77;;
8486;SDS011;4280;50.534;8.708;2024-01-30T03:58:39;74.80;;;37.03;;
8486;SDS011;4280;50.534;8.708;2024-01-30T04:01:05;89.90;;;36.80;;
8486;SDS011;4280;50.534;8.708;2024-01-30T04:03:30;94.73;;;35.07;;
8486;SDS011;4280;50.534;8.708;2024-01-30T04:05:56;94.97;;;35.47;;
8486;SDS011;4280;50.534;8.708;2024-01-30T04:08:22;86.13;;;36.33;;
8486;SDS011;4280;50.534;8.708;2024-01-30T04:10:48;85.23;;;33.67;;
8486;SDS011;4280;50.534;8.708;2024-01-30T04:13:13;84.67;;;35.00;;
8486;SDS011;4280;50.534;8.708;2024-01-30T04:15:39;78.07;;;34.23;;
8486;SDS011;4280;50.534;8.708;2024-01-30T04:18:05;77.27;;;32.93;;
8486;SDS011;4280;50.534;8.708;2024-01-30T04:20:31;67.93;;;34.17;;
8486;SDS011;4280;50.534;8.708;2024-01-30T04:22:56;65.07;;;30.37;;
8486;SDS011;4280;50.534;8.708;2024-01-30T04:25:22;69.60;;;33.37;;
8486;SDS011;4280;50.534;8.708;2024-01-30T04:27:48;61.23;;;31.00;;
8486;SDS011;4280;50.534;8.708;2024-01-30T04:30:14;81.53;;;34.50;;
8486;SDS011;4280;50.534;8.708;2024-01-30T04:32:40;68.50;;;31.33;;
8486;SDS011;4280;50.534;8.708;2024-01-30T04:35:06;81.37;;;32.20;;
8486;SDS011;4280;50.534;8.708;2024-01-30T04:37:32;78.00;;;31.20;;
8486;SDS011;4280;50.534;8.708;2024-01-30T04:39:58;61.77;;;33.17;;
8486;SDS011;4280;50.534;8.708;2024-01-30T04:42:23;88.33;;;33.50;;
8486;SDS011;4280;50.534;8.708;2024-01-30T04:44:49;87.63;;;34.27;;
8486;SDS011;4280;50.534;8.708;2024-01-30T04:47:15;78.47;;;34.73;;
8486;SDS011;4280;50.534;8.708;2024-01-30T04:49:41;68.27;;;30.67;;
8486;SDS011;4280;50.534;8.708;2024-01-30T04:52:07;65.57;;;30.77;;
8486;SDS011;4280;50.534;8.708;2024-01-30T04:54:34;71.97;;;31.80;;
8486;SDS011;4280;50.534;8.708;2024-01-30T04:57:01;80.40;;;34.20;;
8486;SDS011;4280;50.534;8.708;2024-01-30T04:59:27;69.80;;;31.97;;
8486;SDS011;4280;50.534;8.708;2024-01-30T05:01:53;77.60;;;31.27;;
8486;SDS011;4280;50.534;8.708;2024-01-30T05:04:19;83.43;;;34.70;;
8486;SDS011;4280;50.534;8.708;2024-01-30T05:06:44;74.07;;;33.20;;
8486;SDS011;4280;50.534;8.708;2024-01-30T05:09:11;75.60;;;33.63;;
8486;SDS011;4280;50.534;8.708;2024-01-30T05:11:37;79.17;;;36.20;;
8486;SDS011;4280;50.534;8.708;2024-01-30T05:14:05;73.40;;;34.43;;
8486;SDS011;4280;50.534;8.708;2024-01-30T05:16:31;70.43;;;32.57;;
8486;SDS011;4280;50.534;8.708;2024-01-30T05:18:57;67.80;;;33.10;;
8486;SDS011;4280;50.534;8.708;2024-01-30T05:21:24;67.47;;;33.27;;
8486;SDS011;4280;50.534;8.708;2024-01-30T05:23:50;69.40;;;32.97;;
8486;SDS011;4280;50.534;8.708;2024-01-30T05:26:15;68.30;;;31.87;;
8486;SDS011;4280;50.534;8.708;2024-01-30T05:28:41;74.17;;;35.27;;
8486;SDS011;4280;50.534;8.708;2024-01-30T05:31:09;67.80;;;33.37;;
8486;SDS011;4280;50.534;8.708;2024-01-30T05:33:35;58.70;;;29.30;;
8486;SDS011;4280;50.534;8.708;2024-01-30T05:36:01;68.27;;;32.10;;
8486;SDS011;4280;50.534;8.708;2024-01-30T05:38:27;75.27;;;31.70;;
8486;SDS011;4280;50.534;8.708;2024-01-30T05:40:53;76.33;;;33.40;;
8486;SDS011;4280;50.534;8.708;2024-01-30T05:43:19;89.53;;;35.23;;
8486;SDS011;4280;50.534;8.708;2024-01-30T05:45:44;67.20;;;31.30;;
8486;SDS011;4280;50.534;8.708;2024-01-30T05:48:10;61.40;;;25.10;;
8486;SDS011;4280;50.534;8.708;2024-01-30T05:50:36;50.00;;;25.87;;
8486;SDS011;4280;50.534;8.708;2024-01-30T05:53:01;51.57;;;26.90;;
8486;SDS011;4280;50.534;8.708;2024-01-30T05:55:27;66.03;;;27.37;;
8486;SDS011;4280;50.534;8.708;2024-01-30T05:57:53;65.53;;;30.67;;
8486;SDS011;4280;50.534;8.708;2024-01-30T06:00:19;54.83;;;27.40;;
8486;SDS011;4280;50.534;8.708;2024-01-30T06:02:44;58.40;;;26.30;;
8486;SDS011;4280;50.534;8.708;2024-01-30T06:05:10;59.27;;;27.23;;
8486;SDS011;4280;50.534;8.708;2024-01-30T06:07:36;63.43;;;29.93;;
8486;SDS011;4280;50.534;8.708;2024-01-30T06:10:01;56.43;;;27.63;;
8486;SDS011;4280;50.534;8.708;2024-01-30T06:12:28;55.23;;;28.43;;
8486;SDS011;4280;50.534;8.708;2024-01-30T06:14:54;58.60;;;28.30;;
8486;SDS011;4280;50.534;8.708;2024-01-30T06:17:22;56.47;;;26.77;;
8486;SDS011;4280;50.534;8.708;2024-01-30T06:19:48;53.60;;;25.00;;
8486;SDS011;4280;50.534;8.708;2024-01-30T06:22:14;67.60;;;27.30;;
8486;SDS011;4280;50.534;8.708;2024-01-30T06:24:40;59.63;;;25.33;;
8486;SDS011;4280;50.534;8.708;2024-01-30T06:27:06;51.27;;;25.97;;
8486;SDS011;4280;50.534;8.708;2024-01-30T06:29:32;53.50;;;24.50;;
8486;SDS011;4280;50.534;8.708;2024-01-30T06:31:57;59.97;;;29.43;;
8486;SDS011;4280;50.534;8.708;2024-01-30T06:34:23;55.07;;;25.07;;
8486;SDS011;4280;50.534;8.708;2024-01-30T06:36:49;51.33;;;25.57;;
8486;SDS011;4280;50.534;8.708;2024-01-30T06:39:14;53.87;;;26.70;;
8486;SDS011;4280;50.534;8.708;2024-01-30T06:41:52;51.87;;;25.63;;
8486;SDS011;4280;50.534;8.708;2024-01-30T06:44:18;55.23;;;27.03;;
8486;SDS011;4280;50.534;8.708;2024-01-30T06:46:44;53.17;;;25.90;;
8486;SDS011;4280;50.534;8.708;2024-01-30T06:49:09;48.80;;;25.33;;
8486;SDS011;4280;50.534;8.708;2024-01-30T06:51:35;48.03;;;24.77;;
8486;SDS011;4280;50.534;8.708;2024-01-30T06:54:01;60.27;;;25.90;;
8486;SDS011;4280;50.534;8.708;2024-01-30T06:56:26;47.70;;;24.33;;
8486;SDS011;4280;50.534;8.708;2024-01-30T06:58:53;53.40;;;27.40;;
8486;SDS011;4280;50.534;8.708;2024-01-30T07:01:18;48.93;;;25.00;;
8486;SDS011;4280;50.534;8.708;2024-01-30T07:03:44;51.60;;;26.13;;
8486;SDS011;4280;50.534;8.708;2024-01-30T07:06:10;53.23;;;26.00;;
8486;SDS011;4280;50.534;8.708;2024-01-30T07:08:36;52.80;;;26.50;;
8486;SDS011;4280;50.534;8.708;2024-01-30T07:11:05;53.13;;;25.77;;
8486;SDS011;4280;50.534;8.708;2024-01-30T07:13:31;50.70;;;25.27;;
8486;SDS011;4280;50.534;8.708;2024-01-30T07:15:57;45.13;;;24.13;;
8486;SDS011;4280;50.534;8.708;2024-01-30T07:18:23;49.13;;;24.70;;
8486;SDS011;4280;50.534;8.708;2024-01-30T07:20:49;55.40;;;25.63;;
8486;SDS011;4280;50.534;8.708;2024-01-30T07:23:15;58.20;;;25.67;;
8486;SDS011;4280;50.534;8.708;2024-01-30T07:25:45;54.20;;;24.37;;
8486;SDS011;4280;50.534;8.708;2024-01-30T07:28:13;50.70;;;24.23;;
8486;SDS011;4280;50.534;8.708;2024-01-30T07:30:43;59.43;;;29.20;;
8486;SDS011;4280;50.534;8.708;2024-01-30T07:33:09;48.27;;;25.33;;
8486;SDS011;4280;50.534;8.708;2024-01-30T07:35:35;50.53;;;25.73;;
8486;SDS011;4280;50.534;8.708;2024-01-30T07:38:01;61.37;;;26.10;;
8486;SDS011;4280;50.534;8.708;2024-01-30T07:40:27;45.73;;;25.40;;
8486;SDS011;4280;50.534;8.708;2024-01-30T07:42:53;50.60;;;26.40;;
8486;SDS011;4280;50.534;8.708;2024-01-30T07:45:19;49.90;;;26.63;;
8486;SDS011;4280;50.534;8.708;2024-01-30T07:47:49;50.03;;;25.87;;
8486;SDS011;4280;50.534;8.708;2024-01-30T07:50:16;45.57;;;25.60;;
8486;SDS011;4280;50.534;8.708;2024-01-30T07:52:45;55.77;;;26.80;;
8486;SDS011;4280;50.534;8.708;2024-01-30T07:55:10;54.70;;;27.13;;
8486;SDS011;4280;50.534;8.708;2024-01-30T07:57:38;57.20;;;28.53;;
8486;SDS011;4280;50.534;8.708;2024-01-30T08:00:05;52.90;;;26.67;;
8486;SDS011;4280;50.534;8.708;2024-01-30T08:02:32;41.27;;;23.33;;
8486;SDS011;4280;50.534;8.708;2024-01-30T08:04:58;47.30;;;24.30;;
8486;SDS011;4280;50.534;8.708;2024-01-30T08:07:23;48.97;;;25.53;;
8486;SDS011;4280;50.534;8.708;2024-01-30T08:09:49;47.90;;;22.93;;
8486;SDS011;4280;50.534;8.708;2024-01-30T08:12:15;46.77;;;24.77;;
8486;SDS011;4280;50.534;8.708;2024-01-30T08:14:41;59.73;;;28.03;;
8486;SDS011;4280;50.534;8.708;2024-01-30T08:17:07;51.67;;;26.37;;
8486;SDS011;4280;50.534;8.708;2024-01-30T08:19:33;50.00;;;25.87;;
8486;SDS011;4280;50.534;8.708;2024-01-30T08:21:58;54.30;;;22.87;;
8486;SDS011;4280;50.534;8.708;2024-01-30T08:24:24;51.07;;;23.33;;
8486;SDS011;4280;50.534;8.708;2024-01-30T08:26:50;47.23;;;25.77;;
8486;SDS011;4280;50.534;8.708;2024-01-30T08:29:16;52.07;;;28.17;;
8486;SDS011;4280;50.534;8.708;2024-01-30T08:31:41;54.60;;;30.30;;
8486;SDS011;4280;50.534;8.708;2024-01-30T08:34:07;63.27;;;30.83;;
8486;SDS011;4280;50.534;8.708;2024-01-30T08:36:33;58.60;;;27.93;;
8486;SDS011;4280;50.534;8.708;2024-01-30T08:38:59;61.03;;;29.13;;
8486;SDS011;4280;50.534;8.708;2024-01-30T08:41:24;48.33;;;28.43;;
8486;SDS011;4280;50.534;8.708;2024-01-30T08:43:51;50.70;;;27.33;;
8486;SDS011;4280;50.534;8.708;2024-01-30T08:46:18;53.37;;;28.80;;
8486;SDS011;4280;50.534;8.708;2024-01-30T08:48:43;53.83;;;28.03;;
8486;SDS011;4280;50.534;8.708;2024-01-30T08:51:09;51.93;;;27.33;;
8486;SDS011;4280;50.534;8.708;2024-01-30T08:53:36;96.00;;;42.37;;
8486;SDS011;4280;50.534;8.708;2024-01-30T08:56:02;93.93;;;38.53;;
8486;SDS011;4280;50.534;8.708;2024-01-30T08:58:28;84.43;;;37.60;;
8486;SDS011;4280;50.534;8.708;2024-01-30T09:00:54;95.47;;;43.20;;
8486;SDS011;4280;50.534;8.708;2024-01-30T09:03:20;61.73;;;32.37;;
8486;SDS011;4280;50.534;8.708;2024-01-30T09:05:46;56.73;;;29.40;;
8486;SDS011;4280;50.534;8.708;2024-01-30T09:08:11;49.90;;;25.83;;
8486;SDS011;4280;50.534;8.708;2024-01-30T09:10:37;45.27;;;24.57;;
8486;SDS011;4280;50.534;8.708;2024-01-30T09:13:03;47.27;;;26.73;;
8486;SDS011;4280;50.534;8.708;2024-01-30T09:15:28;79.00;;;36.33;;
8486;SDS011;4280;50.534;8.708;2024-01-30T09:17:54;63.43;;;29.30;;
8486;SDS011;4280;50.534;8.708;2024-01-30T09:20:20;53.47;;;27.80;;
8486;SDS011;4280;50.534;8.708;2024-01-30T09:22:47;58.57;;;27.90;;
8486;SDS011;4280;50.534;8.708;2024-01-30T09:25:14;44.07;;;24.30;;
8486;SDS011;4280;50.534;8.708;2024-01-30T09:27:40;39.60;;;22.57;;
8486;SDS011;4280;50.534;8.708;2024-01-30T09:30:06;37.97;;;22.33;;
8486;SDS011;4280;50.534;8.708;2024-01-30T09:32:32;38.63;;;23.17;;
8486;SDS011;4280;50.534;8.708;2024-01-30T09:34:58;42.13;;;24.10;;
8486;SDS011;4280;50.534;8.708;2024-01-30T09:37:24;39.80;;;23.80;;
8486;SDS011;4280;50.534;8.708;2024-01-30T09:39:50;40.60;;;22.53;;
8486;SDS011;4280;50.534;8.708;2024-01-30T09:44:51;34.90;;;19.87;;
8486;SDS011;4280;50.534;8.708;2024-01-30T09:47:20;50.53;;;23.33;;
8486;SDS011;4280;50.534;8.708;2024-01-30T09:49:46;37.97;;;21.33;;
8486;SDS011;4280;50.534;8.708;2024-01-30T09:52:12;40.17;;;21.57;;
8486;SDS011;4280;50.534;8.708;2024-01-30T09:54:38;44.37;;;23.80;;
8486;SDS011;4280;50.534;8.708;2024-01-30T09:57:05;35.83;;;21.93;;
8486;SDS011;4280;50.534;8.708;2024-01-30T09:59:32;39.60;;;21.70;;
8486;SDS011;4280;50.534;8.708;2024-01-30T10:01:58;34.93;;;19.70;;
8486;SDS011;4280;50.534;8.708;2024-01-30T10:04:23;36.30;;;20.47;;
8486;SDS011;4280;50.534;8.708;2024-01-30T10:06:50;32.43;;;19.47;;
8486;SDS011;4280;50.534;8.708;2024-01-30T10:09:16;33.70;;;17.63;;
8486;SDS011;4280;50.534;8.708;2024-01-30T10:11:42;27.50;;;16.93;;
8486;SDS011;4280;50.534;8.708;2024-01-30T10:14:07;36.17;;;18.83;;
8486;SDS011;4280;50.534;8.708;2024-01-30T10:16:36;30.30;;;17.47;;
8486;SDS011;4280;50.534;8.708;2024-01-30T10:19:02;40.17;;;20.80;;
8486;SDS011;4280;50.534;8.708;2024-01-30T10:21:29;34.23;;;19.60;;
8486;SDS011;4280;50.534;8.708;2024-01-30T10:23:55;39.07;;;17.83;;
8486;SDS011;4280;50.534;8.708;2024-01-30T10:26:21;40.27;;;18.07;;
8486;SDS011;4280;50.534;8.708;2024-01-30T10:28:47;30.27;;;18.13;;
8486;SDS011;4280;50.534;8.708;2024-01-30T10:31:17;33.13;;;19.70;;
8486;SDS011;4280;50.534;8.708;2024-01-30T10:33:45;31.03;;;18.50;;
8486;SDS011;4280;50.534;8.708;2024-01-30T10:36:13;33.40;;;18.67;;
8486;SDS011;4280;50.534;8.708;2024-01-30T10:38:40;34.77;;;19.67;;
8486;SDS011;4280;50.534;8.708;2024-01-30T10:41:07;31.83;;;18.60;;
8486;SDS011;4280;50.534;8.708;2024-01-30T10:43:40;34.90;;;20.97;;
8486;SDS011;4280;50.534;8.708;2024-01-30T10:46:18;39.03;;;19.63;;
8486;SDS011;4280;50.534;8.708;2024-01-30T10:49:06;26.87;;;18.03;;
8486;SDS011;4280;50.534;8.708;2024-01-30T10:51:32;34.63;;;19.23;;
8486;SDS011;4280;50.534;8.708;2024-01-30T10:53:59;49.30;;;27.10;;
8486;SDS011;4280;50.534;8.708;2024-01-30T10:56:26;34.77;;;18.63;;
8486;SDS011;4280;50.534;8.708;2024-01-30T10:58:53;36.40;;;19.37;;
8486;SDS011;4280;50.534;8.708;2024-01-30T11:01:20;35.23;;;19.63;;
8486;SDS011;4280;50.534;8.708;2024-01-30T11:03:51;32.20;;;19.77;;
8486;SDS011;4280;50.534;8.708;2024-01-30T11:06:17;40.00;;;22.50;;
8486;SDS011;4280;50.534;8.708;2024-01-30T11:08:44;37.20;;;22.17;;
8486;SDS011;4280;50.534;8.708;2024-01-30T11:11:10;37.33;;;19.30;;
8486;SDS011;4280;50.534;8.708;2024-01-30T11:13:36;44.90;;;20.30;;
8486;SDS011;4280;50.534;8.708;2024-01-30T11:16:02;32.70;;;20.07;;
8486;SDS011;4280;50.534;8.708;2024-01-30T11:18:30;35.77;;;20.10;;
8486;SDS011;4280;50.534;8.708;2024-01-30T11:21:00;30.63;;;18.87;;
8486;SDS011;4280;50.534;8.708;2024-01-30T11:23:27;32.00;;;19.77;;
8486;SDS011;4280;50.534;8.708;2024-01-30T11:25:53;34.77;;;19.43;;
8486;SDS011;4280;50.534;8.708;2024-01-30T11:28:21;27.77;;;18.13;;
8486;SDS011;4280;50.534;8.708;2024-01-30T11:30:47;32.70;;;19.40;;
8486;SDS011;4280;50.534;8.708;2024-01-30T11:33:15;33.17;;;20.10;;
8486;SDS011;4280;50.534;8.708;2024-01-30T11:35:56;29.90;;;19.77;;
8486;SDS011;4280;50.534;8.708;2024-01-30T11:38:24;39.40;;;20.10;;
8486;SDS011;4280;50.534;8.708;2024-01-30T11:40:52;43.53;;;20.20;;
8486;SDS011;4280;50.534;8.708;2024-01-30T11:43:21;32.00;;;19.30;;
8486;SDS011;4280;50.534;8.708;2024-01-30T11:45:47;46.07;;;20.90;;
8486;SDS011;4280;50.534;8.708;2024-01-30T11:48:13;33.77;;;20.13;;
8486;SDS011;4280;50.534;8.708;2024-01-30T11:50:39;35.30;;;20.17;;
8486;SDS011;4280;50.534;8.708;2024-01-30T11:53:09;32.53;;;19.40;;
8486;SDS011;4280;50.534;8.708;2024-01-30T11:55:35;34.07;;;20.50;;
8486;SDS011;4280;50.534;8.708;2024-01-30T11:58:02;33.30;;;20.10;;
8486;SDS011;4280;50.534;8.708;2024-01-30T12:00:29;31.40;;;20.70;;
8486;SDS011;4280;50.534;8.708;2024-01-30T12:02:58;32.40;;;19.33;;
8486;SDS011;4280;50.534;8.708;2024-01-30T12:05:25;34.83;;;17.93;;
8486;SDS011;4280;50.534;8.708;2024-01-30T12:07:52;34.83;;;20.20;;
8486;SDS011;4280;50.534;8.708;2024-01-30T12:10:18;37.23;;;20.50;;
8486;SDS011;4280;50.534;8.708;2024-01-30T12:12:47;33.27;;;19.50;;
8486;SDS011;4280;50.534;8.708;2024-01-30T12:15:15;40.47;;;20.10;;
8486;SDS011;4280;50.534;8.708;2024-01-30T12:17:42;36.33;;;20.40;;
8486;SDS011;4280;50.534;8.708;2024-01-30T12:20:11;35.03;;;20.10;;
8486;SDS011;4280;50.534;8.708;2024-01-30T12:22:43;33.70;;;19.63;;
8486;SDS011;4280;50.534;8.708;2024-01-30T12:25:12;33.70;;;18.90;;
8486;SDS011;4280;50.534;8.708;2024-01-30T12:27:47;30.57;;;20.70;;
8486;SDS011;4280;50.534;8.708;2024-01-30T12:30:20;38.73;;;22.03;;
8486;SDS011;4280;50.534;8.708;2024-01-30T12:32:46;35.87;;;20.50;;
8486;SDS011;4280;50.534;8.708;2024-01-30T12:35:15;41.77;;;23.40;;
8486;SDS011;4280;50.534;8.708;2024-01-30T12:37:44;37.27;;;23.50;;
8486;SDS011;4280;50.534;8.708;2024-01-30T12:40:11;37.60;;;22.43;;
8486;SDS011;4280;50.534;8.708;2024-01-30T12:42:39;38.27;;;21.17;;
8486;SDS011;4280;50.534;8.708;2024-01-30T12:45:07;37.03;;;21.80;;
8486;SDS011;4280;50.534;8.708;2024-01-30T12:47:34;29.10;;;18.53;;
8486;SDS011;4280;50.534;8.708;2024-01-30T12:49:59;36.67;;;20.37;;
8486;SDS011;4280;50.534;8.708;2024-01-30T12:52:25;31.13;;;18.43;;
8486;SDS011;4280;50.534;8.708;2024-01-30T12:54:51;32.23;;;19.90;;
8486;SDS011;4280;50.534;8.708;2024-01-30T12:57:17;30.33;;;20.20;;
8486;SDS011;4280;50.534;8.708;2024-01-30T12:59:44;35.67;;;20.70;;
8486;SDS011;4280;50.534;8.708;2024-01-30T13:02:11;33.20;;;18.73;;
8486;SDS011;4280;50.534;8.708;2024-01-30T13:04:38;33.03;;;19.40;;
8486;SDS011;4280;50.534;8.708;2024-01-30T13:07:04;30.43;;;19.20;;
8486;SDS011;4280;50.534;8.708;2024-01-30T13:09:30;35.43;;;19.60;;
8486;SDS011;4280;50.534;8.708;2024-01-30T13:11:59;36.73;;;21.60;;
8486;SDS011;4280;50.534;8.708;2024-01-30T13:14:25;35.17;;;20.00;;
8486;SDS011;4280;50.534;8.708;2024-01-30T13:16:51;41.83;;;21.00;;
8486;SDS011;4280;50.534;8.708;2024-01-30T13:19:17;35.20;;;19.50;;
8486;SDS011;4280;50.534;8.708;2024-01-30T13:21:43;34.17;;;20.30;;
8486;SDS011;4280;50.534;8.708;2024-01-30T13:24:09;35.17;;;19.90;;
8486;SDS011;4280;50.534;8.708;2024-01-30T13:26:35;31.77;;;19.73;;
8486;SDS011;4280;50.534;8.708;2024-01-30T13:29:01;37.80;;;21.33;;
8486;SDS011;4280;50.534;8.708;2024-01-30T13:31:27;33.20;;;20.87;;
8486;SDS011;4280;50.534;8.708;2024-01-30T13:33:53;35.93;;;20.23;;
8486;SDS011;4280;50.534;8.708;2024-01-30T13:36:19;30.00;;;19.23;;
8486;SDS011;4280;50.534;8.708;2024-01-30T13:38:46;36.87;;;20.27;;
8486;SDS011;4280;50.534;8.708;2024-01-30T13:41:12;32.87;;;20.70;;
8486;SDS011;4280;50.534;8.708;2024-01-30T13:43:38;30.10;;;20.00;;
8486;SDS011;4280;50.534;8.708;2024-01-30T13:46:03;41.03;;;23.03;;
8486;SDS011;4280;50.534;8.708;2024-01-30T13:48:29;35.23;;;19.70;;
8486;SDS011;4280;50.534;8.708;2024-01-30T13:50:56;30.50;;;18.23;;
8486;SDS011;4280;50.534;8.708;2024-01-30T13:53:21;50.50;;;21.33;;
8486;SDS011;4280;50.534;8.708;2024-01-30T13:55:48;34.07;;;19.30;;
8486;SDS011;4280;50.534;8.708;2024-01-30T13:58:13;34.30;;;19.33;;
8486;SDS011;4280;50.534;8.708;2024-01-30T14:00:39;30.10;;;19.20;;
8486;SDS011;4280;50.534;8.708;2024-01-30T14:03:05;31.30;;;19.67;;
8486;SDS011;4280;50.534;8.708;2024-01-30T14:05:31;36.43;;;21.77;;
8486;SDS011;4280;50.534;8.708;2024-01-30T14:07:57;31.90;;;17.83;;
8486;SDS011;4280;50.534;8.708;2024-01-30T14:10:23;27.40;;;19.00;;
8486;SDS011;4280;50.534;8.708;2024-01-30T14:12:50;31.70;;;18.67;;
8486;SDS011;4280;50.534;8.708;2024-01-30T14:15:15;35.37;;;20.80;;
8486;SDS011;4280;50.534;8.708;2024-01-30T14:17:45;32.70;;;20.10;;
8486;SDS011;4280;50.534;8.708;2024-01-30T14:20:13;39.00;;;20.30;;
8486;SDS011;4280;50.534;8.708;2024-01-30T14:22:41;39.57;;;19.80;;
8486;SDS011;4280;50.534;8.708;2024-01-30T14:25:07;40.13;;;20.10;;
8486;SDS011;4280;50.534;8.708;2024-01-30T14:27:34;37.50;;;19.43;;
8486;SDS011;4280;50.534;8.708;2024-01-30T14:30:01;28.03;;;19.17;;
8486;SDS011;4280;50.534;8.708;2024-01-30T14:32:28;34.23;;;20.70;;
8486;SDS011;4280;50.534;8.708;2024-01-30T14:34:53;40.40;;;19.50;;
8486;SDS011;4280;50.534;8.708;2024-01-30T14:37:20;35.33;;;20.60;;
8486;SDS011;4280;50.534;8.708;2024-01-30T14:39:46;49.23;;;18.47;;
8486;SDS011;4280;50.534;8.708;2024-01-30T14:42:15;33.00;;;20.67;;
8486;SDS011;4280;50.534;8.708;2024-01-30T14:44:41;42.80;;;23.20;;
8486;SDS011;4280;50.534;8.708;2024-01-30T14:47:07;34.63;;;20.90;;